Chetco River@Brookings

Start Stop
DateFlow
CFS
Gauge
Feet
DateFlow
CFS
Gauge
Feet
10/26/2021 12:3080206.65
10/26/2021 11:3079306.59
10/26/2021 10:3079006.57
10/26/2021 09:3076506.41
10/26/2021 08:3074306.27
10/26/2021 06:3070606.02
10/26/2021 05:3069805.97
10/26/2021 04:3067905.84
10/26/2021 03:3067505.81
10/26/2021 02:3065605.68
10/26/2021 01:3062605.47
10/26/2021 00:3060205.3
10/25/2021 23:3058205.16
10/25/2021 22:3057405.1
10/25/2021 21:3055604.97
10/25/2021 20:3054004.85
10/25/2021 19:3053004.77
10/25/2021 18:3050704.6
10/25/2021 17:3051604.67
10/25/2021 16:3051004.62
10/25/2021 15:3051204.64
10/25/2021 14:3051604.67
10/25/2021 13:3052304.72
10/25/2021 12:3053304.8
10/25/2021 11:3054604.89
10/25/2021 10:3055504.96
10/25/2021 09:3057405.1
10/25/2021 08:3058405.17
10/25/2021 07:3059705.27
10/25/2021 06:3061305.38
10/25/2021 05:3063305.52
10/25/2021 04:3065405.67
10/25/2021 03:3067205.79
10/25/2021 02:3069405.94
10/25/2021 01:3070005.98
10/25/2021 00:3070706.03
10/24/2021 23:3070406.01
10/24/2021 22:3071306.07
10/24/2021 21:3071506.08
10/24/2021 20:3070906.04
10/24/2021 19:3071606.09
10/24/2021 18:3071806.1
10/24/2021 17:3070706.03
10/24/2021 16:3069405.94
10/24/2021 15:3066305.73
10/24/2021 14:3063305.52
10/24/2021 13:3059305.24
10/24/2021 12:3054804.91
10/24/2021 11:3052404.73
10/24/2021 10:3050204.56
10/24/2021 09:3048704.44
10/24/2021 08:3047504.35
10/24/2021 07:3046404.26
10/24/2021 06:3044804.13
10/24/2021 05:3043904.06
10/24/2021 04:3043304.01
10/24/2021 03:3043504.03
10/24/2021 02:3044304.09
10/24/2021 01:3044304.09
10/24/2021 00:3045404.18
10/23/2021 23:3045404.18
10/23/2021 22:3044804.13
10/23/2021 21:3043904.06
10/23/2021 20:3043804.05
10/23/2021 19:3043003.99
10/23/2021 18:3042303.92
10/23/2021 17:3041503.83
10/23/2021 16:3040503.73
10/23/2021 15:3039403.62
10/23/2021 14:3038003.47
10/23/2021 13:3037503.42
10/23/2021 12:3036203.28
10/23/2021 11:3035703.23
10/23/2021 10:3034903.15
10/23/2021 09:3034603.12
10/23/2021 08:3033603.01
10/23/2021 07:3033102.95
10/23/2021 06:3032202.85
10/23/2021 05:3031902.82
10/23/2021 04:3031102.73
10/23/2021 03:3031202.74
10/23/2021 02:3031102.73
10/23/2021 01:3031302.76
10/23/2021 00:3031202.75
10/22/2021 23:3031902.82
10/22/2021 22:3032402.88
10/22/2021 21:3032802.92
10/22/2021 20:3033603.01
10/22/2021 19:3034603.12
10/22/2021 18:3034903.15
10/22/2021 17:3036203.28
10/22/2021 16:3037703.44
10/22/2021 15:3038903.57
10/22/2021 14:3040703.75
10/22/2021 13:3042103.9
10/22/2021 12:3044604.12
10/22/2021 11:3046104.24
10/22/2021 10:3048404.42
10/22/2021 09:3050604.59
10/22/2021 08:3052204.71
10/22/2021 07:3051804.68
10/22/2021 06:3054604.89
10/22/2021 05:3053704.83
10/22/2021 04:3056905.06
10/22/2021 03:3056305.02
10/22/2021 02:3050704.6
10/22/2021 00:3036203.28
10/21/2021 23:3032402.88
10/21/2021 22:3030002.61
10/21/2021 21:3027202.3
10/21/2021 20:3023601.88
10/21/2021 19:3016601.01
10/21/2021 18:3012500.44
10/21/2021 17:309950.07
10/21/2021 16:30807-0.29
10/21/2021 15:30627-0.61
10/21/2021 14:30570-0.72
10/21/2021 13:30526-0.81
10/21/2021 12:30550-0.76
10/21/2021 11:30560-0.74
10/21/2021 10:30570-0.72
10/21/2021 09:30591-0.68
10/21/2021 08:30606-0.65
10/21/2021 07:30627-0.61
10/21/2021 06:30648-0.57
10/21/2021 05:30675-0.52
10/21/2021 04:30714-0.45
10/21/2021 03:30726-0.43
10/21/2021 02:30760-0.37
10/21/2021 01:30778-0.34
10/21/2021 00:30778-0.34
10/20/2021 23:30772-0.35
10/20/2021 22:30714-0.45
10/20/2021 21:30675-0.52
10/20/2021 20:30632-0.6
10/20/2021 19:30627-0.61
10/20/2021 18:30606-0.65
10/20/2021 17:30596-0.67
10/20/2021 16:30570-0.72
10/20/2021 15:30512-0.84
10/20/2021 14:30443-0.99
10/20/2021 13:30379-1.14
10/20/2021 12:30343-1.23
10/20/2021 11:30309-1.32
10/20/2021 10:30270-1.43
10/20/2021 09:30221-1.58
10/20/2021 08:30194-1.68
10/20/2021 07:30175-1.75
10/20/2021 06:30163-1.8
10/20/2021 05:30153-1.84
10/20/2021 04:30144-1.88
10/20/2021 03:30134-1.92
10/20/2021 02:30132-1.93
10/20/2021 01:30125-1.96
10/20/2021 00:30119-1.99
10/19/2021 23:30113-2.02
10/19/2021 22:30111-2.03
10/19/2021 21:30109-2.04
10/19/2021 15:30109-2.04
10/19/2021 14:30111-2.03
10/19/2021 13:30111-2.03
10/19/2021 12:30113-2.02
10/19/2021 08:30113-2.02
10/19/2021 07:30111-2.03
10/19/2021 06:30113-2.02
10/19/2021 04:30113-2.02
10/19/2021 03:30115-2.01
10/19/2021 02:30117-2
10/19/2021 01:30117-2
10/19/2021 00:30119-1.99
10/18/2021 23:30119-1.99
10/18/2021 22:30121-1.98
10/18/2021 21:30123-1.97
10/18/2021 20:30125-1.96
10/18/2021 19:30128-1.95
10/18/2021 18:30128-1.95
10/18/2021 17:30130-1.94
10/18/2021 16:30130-1.94
10/18/2021 15:30128-1.95
10/18/2021 13:30128-1.95
10/18/2021 12:30125-1.96
10/18/2021 11:30125-1.96
10/18/2021 10:30123-1.97
10/18/2021 09:30121-1.98
10/18/2021 08:30119-1.99
10/18/2021 07:30119-1.99
10/18/2021 06:30117-2
10/18/2021 05:30115-2.01
10/18/2021 04:30113-2.02
10/18/2021 03:30109-2.04
10/18/2021 02:30109-2.04
10/18/2021 01:30106-2.05
10/18/2021 00:30102-2.07
10/17/2021 23:30102-2.07
10/17/2021 22:30100-2.08
10/17/2021 21:3096-2.1
10/17/2021 20:3096-2.1
10/17/2021 19:3094-2.11
10/17/2021 18:3094-2.11
10/17/2021 17:3092-2.12
10/17/2021 16:3090-2.13
10/17/2021 15:3088-2.14
10/17/2021 14:3088-2.14
10/17/2021 13:3081-2.18
10/17/2021 12:3074-2.22
10/17/2021 11:3071-2.24
10/17/2021 10:3073-2.23
10/17/2021 08:3073-2.23
10/17/2021 07:3071-2.24
10/17/2021 06:3071-2.24
10/17/2021 05:3073-2.23
10/16/2021 19:3073-2.23
10/16/2021 18:3074-2.22
10/16/2021 07:3074-2.22
10/16/2021 06:3073-2.23
10/16/2021 05:3074-2.22
10/15/2021 20:3074-2.22
10/15/2021 19:3076-2.21
10/15/2021 18:3074-2.22
10/15/2021 17:3076-2.21
10/15/2021 16:3076-2.21
10/15/2021 15:3074-2.22
10/15/2021 14:3074-2.22
10/15/2021 13:3076-2.21
10/15/2021 10:3076-2.21
10/15/2021 09:3074-2.22
10/15/2021 08:3076-2.21
10/14/2021 23:3076-2.21
10/14/2021 22:3078-2.2
10/14/2021 21:3076-2.21
10/14/2021 19:3076-2.21
10/14/2021 18:3078-2.2
10/14/2021 14:3078-2.2
10/14/2021 13:3076-2.21
10/14/2021 12:3078-2.2
10/14/2021 11:3078-2.2
10/14/2021 10:3076-2.21
10/14/2021 06:3076-2.21
10/14/2021 05:3078-2.2
10/14/2021 04:3076-2.21
10/14/2021 03:3078-2.2
10/14/2021 02:3076-2.21
10/14/2021 01:3078-2.2
10/14/2021 00:3076-2.21
10/13/2021 23:3076-2.21
10/13/2021 22:3078-2.2
10/13/2021 18:3078-2.2
10/13/2021 17:3079-2.19
10/13/2021 15:3079-2.19
10/13/2021 14:3078-2.2
10/13/2021 13:3079-2.19
10/13/2021 12:3079-2.19
10/13/2021 11:3078-2.2
10/13/2021 08:3078-2.2
10/13/2021 07:3076-2.21
10/13/2021 06:3078-2.2
10/13/2021 03:3078-2.2
10/13/2021 02:3079-2.19
10/13/2021 01:3078-2.2
10/12/2021 23:3078-2.2
10/12/2021 22:3076-2.21
10/11/2021 22:3076-2.21
10/11/2021 21:3078-2.2
10/11/2021 18:3078-2.2
10/11/2021 17:3079-2.19
10/11/2021 16:3079-2.19
10/11/2021 15:3081-2.18
10/11/2021 14:3081-2.18
10/11/2021 13:3079-2.19
10/11/2021 12:3081-2.18
10/11/2021 08:3079-2.19
10/11/2021 04:3079-2.19
10/11/2021 03:3081-2.18
10/11/2021 02:3081-2.18
10/11/2021 01:3079-2.19
10/10/2021 23:3079-2.19
10/10/2021 22:3081-2.18
10/10/2021 21:3081-2.18
10/10/2021 20:3083-2.17
10/10/2021 17:3083-2.17
10/10/2021 16:3085-2.16
10/10/2021 13:3085-2.16
10/10/2021 12:3087-2.15
10/10/2021 11:3085-2.16
10/10/2021 09:3085-2.16
10/10/2021 08:3083-2.17
10/10/2021 07:3085-2.16
10/10/2021 04:3085-2.16
10/10/2021 03:3087-2.15
10/10/2021 02:3085-2.16
10/10/2021 01:3087-2.15
10/09/2021 23:3087-2.15
10/09/2021 21:3088-2.14
10/09/2021 20:3087-2.15
10/09/2021 19:3088-2.14
10/09/2021 18:3087-2.15
10/09/2021 16:3087-2.15
10/09/2021 15:3088-2.14
10/09/2021 06:3088-2.14
10/09/2021 05:3090-2.13
10/09/2021 04:3088-2.14
10/09/2021 03:3090-2.13
10/08/2021 23:3090-2.13
10/08/2021 22:3092-2.12
10/08/2021 21:3090-2.13
10/08/2021 19:3090-2.13
10/08/2021 18:3092-2.12
10/08/2021 16:3092-2.12
10/08/2021 15:3094-2.11
10/08/2021 11:3094-2.11
10/08/2021 10:3092-2.12
10/08/2021 09:3092-2.12
10/08/2021 08:3094-2.11
10/08/2021 06:3094-2.11
10/08/2021 05:3096-2.1
10/08/2021 03:3096-2.1
10/08/2021 02:3098-2.09
10/07/2021 20:3098-2.09
10/07/2021 19:30100-2.08
10/07/2021 18:30100-2.08
10/07/2021 17:30102-2.07
10/07/2021 16:30720-0.44
10/07/2021 15:3094-2.11
10/07/2021 14:3094-2.11
10/07/2021 13:3096-2.1
10/07/2021 12:3096-2.1
10/07/2021 11:3098-2.09
10/07/2021 06:3098-2.09
10/07/2021 05:30100-2.08
10/07/2021 02:30100-2.08
10/07/2021 01:30102-2.07
10/07/2021 00:30102-2.07
10/06/2021 23:30104-2.06
10/06/2021 21:30104-2.06
10/06/2021 20:30106-2.05
10/06/2021 19:30106-2.05
10/06/2021 18:30109-2.04
10/06/2021 12:30109-2.04
10/06/2021 11:30106-2.05
10/06/2021 08:30106-2.05
10/06/2021 07:30104-2.06
10/06/2021 04:30104-2.06
10/06/2021 03:30102-2.07
10/06/2021 00:30102-2.07
10/05/2021 23:30100-2.08
10/05/2021 22:30102-2.07
10/05/2021 21:30100-2.08
10/05/2021 20:30100-2.08
10/05/2021 19:3098-2.09
10/05/2021 18:3098-2.09
10/05/2021 17:30100-2.08
10/05/2021 16:3096-2.1
10/05/2021 15:3092-2.12
10/05/2021 13:3092-2.12
10/05/2021 12:3090-2.13
10/05/2021 11:3092-2.12
10/05/2021 10:3092-2.12
10/05/2021 09:3090-2.13
10/05/2021 08:3092-2.12
10/05/2021 04:3092-2.12
10/05/2021 03:3094-2.11
10/04/2021 23:3094-2.11
10/04/2021 22:3096-2.1
10/04/2021 21:3094-2.11
10/04/2021 20:3096-2.1
10/04/2021 19:3096-2.1
10/04/2021 18:3098-2.09
10/04/2021 17:3096-2.1
10/04/2021 16:3096-2.1
10/04/2021 15:3098-2.09
10/04/2021 13:3098-2.09
10/04/2021 12:30100-2.08
10/04/2021 08:30100-2.08
10/04/2021 07:30102-2.07
10/04/2021 03:30102-2.07
10/04/2021 02:30104-2.06
10/04/2021 01:30104-2.06
10/04/2021 00:30106-2.05
10/03/2021 23:30106-2.05
10/03/2021 22:30104-2.06
10/03/2021 21:30106-2.05
10/03/2021 20:30106-2.05
10/03/2021 19:30109-2.04
10/03/2021 17:30109-2.04
10/03/2021 16:30111-2.03
10/03/2021 15:30109-2.04
10/03/2021 14:30111-2.03
10/03/2021 13:30111-2.03
10/03/2021 12:30113-2.02
10/03/2021 11:30113-2.02
10/03/2021 10:30115-2.01
10/03/2021 09:30113-2.02
10/03/2021 08:30113-2.02
10/03/2021 07:30115-2.01
10/03/2021 05:30115-2.01
10/03/2021 04:30117-2
10/03/2021 02:30117-2
10/03/2021 01:30119-1.99
10/03/2021 00:30117-2
10/02/2021 23:30121-1.98
10/02/2021 20:30121-1.98
10/02/2021 19:30123-1.97
10/02/2021 16:30123-1.97
10/02/2021 15:30125-1.96
10/02/2021 14:30128-1.95
10/02/2021 12:30128-1.95
10/02/2021 11:30130-1.94
10/02/2021 08:30130-1.94
10/02/2021 07:30132-1.93
10/02/2021 06:30132-1.93
10/02/2021 05:30134-1.92
10/02/2021 04:30137-1.91
10/02/2021 02:30137-1.91
10/02/2021 01:30139-1.9
10/02/2021 00:30141-1.89
10/01/2021 22:30141-1.89
10/01/2021 21:30144-1.88
10/01/2021 20:30146-1.87
10/01/2021 19:30146-1.87
10/01/2021 18:30148-1.86
10/01/2021 17:30148-1.86
10/01/2021 16:30151-1.85
10/01/2021 15:30153-1.84
10/01/2021 14:30153-1.84
10/01/2021 13:30155-1.83
10/01/2021 12:30158-1.82
10/01/2021 11:30160-1.81
10/01/2021 10:30160-1.81
10/01/2021 09:30163-1.8
10/01/2021 07:30163-1.8
10/01/2021 06:30165-1.79
10/01/2021 05:30170-1.77
10/01/2021 04:30170-1.77
10/01/2021 03:30173-1.76
10/01/2021 02:30173-1.76
10/01/2021 01:30178-1.74
10/01/2021 00:30178-1.74
09/30/2021 23:30181-1.73
09/30/2021 22:30183-1.72
09/30/2021 21:30186-1.71
09/30/2021 20:30188-1.7
09/30/2021 19:30191-1.69
09/30/2021 18:30194-1.68
09/30/2021 17:30196-1.67
09/30/2021 16:30199-1.66
09/30/2021 15:30199-1.66
09/30/2021 14:30202-1.65
09/30/2021 13:30205-1.64
09/30/2021 12:30207-1.63
09/30/2021 11:30213-1.61
09/30/2021 10:30216-1.6
09/30/2021 09:30219-1.59
09/30/2021 08:30221-1.58
09/30/2021 07:30224-1.57
09/30/2021 06:30224-1.57
09/30/2021 05:30230-1.55
09/30/2021 04:30233-1.54
09/30/2021 03:30240-1.52
09/30/2021 02:30246-1.5
09/30/2021 01:30249-1.49
09/30/2021 00:30256-1.47
09/29/2021 23:30263-1.45
09/29/2021 22:30263-1.45
09/29/2021 21:30270-1.43
09/29/2021 20:30273-1.42
09/29/2021 19:30280-1.4
09/29/2021 18:30287-1.38
09/29/2021 17:30294-1.36
09/29/2021 16:30302-1.34
09/29/2021 15:30309-1.32
09/29/2021 14:30320-1.29
09/29/2021 13:30328-1.27
09/29/2021 12:30335-1.25
09/29/2021 11:30343-1.23
09/29/2021 10:30355-1.2
09/29/2021 09:30363-1.18
09/29/2021 08:30375-1.15
09/29/2021 07:30387-1.12
09/29/2021 06:30395-1.1
09/29/2021 05:30412-1.06
09/29/2021 04:30425-1.03
09/29/2021 03:30438-1
09/29/2021 02:30447-0.98
09/29/2021 01:30465-0.94
09/29/2021 00:30483-0.9
09/28/2021 23:30502-0.86
09/28/2021 22:30521-0.82
09/28/2021 21:30541-0.78
09/28/2021 20:30565-0.73
09/28/2021 19:30580-0.7
09/28/2021 18:30611-0.64
09/28/2021 17:30643-0.58
09/28/2021 16:30665-0.54
09/28/2021 15:30698-0.48
09/28/2021 14:30720-0.44
09/28/2021 13:30743-0.4
09/28/2021 12:30790-0.32
09/28/2021 11:30826-0.26
09/28/2021 10:30850-0.22
09/28/2021 09:30855-0.21
09/28/2021 08:30875-0.17
09/28/2021 07:30838-0.24
09/28/2021 06:30826-0.26
09/28/2021 05:30838-0.24
09/28/2021 04:30875-0.17
09/28/2021 03:30910-0.1
09/28/2021 02:30940-0.04
09/28/2021 01:309700.02
09/28/2021 00:30955-0.01
09/27/2021 23:30940-0.04
09/27/2021 22:30895-0.13
09/27/2021 21:30844-0.23
09/27/2021 20:30766-0.36
09/27/2021 19:30686-0.5
09/27/2021 18:30580-0.7
09/27/2021 17:30497-0.87
09/27/2021 16:30425-1.03
09/27/2021 15:30371-1.16
09/27/2021 14:30328-1.27
09/27/2021 13:30284-1.39
09/27/2021 12:30246-1.5
09/27/2021 11:30221-1.58
09/27/2021 10:30199-1.66
09/27/2021 09:30183-1.72
09/27/2021 08:30170-1.77
09/27/2021 07:30158-1.82
09/27/2021 06:30144-1.88
09/27/2021 05:30128-1.95
09/27/2021 04:30111-2.03
09/27/2021 03:30100-2.08
09/27/2021 02:3087-2.15
09/27/2021 01:3074-2.22
09/27/2021 00:3062-2.3
09/26/2021 23:3056-2.34
09/26/2021 22:3054-2.35
09/26/2021 21:3054-2.35
09/26/2021 20:3053-2.36
09/26/2021 15:3053-2.36
09/26/2021 14:3054-2.35

Start Stop